Time;durP1;ratioP1;P1;durP2;ratioP2;P2;SDS_P1;SDS_P2;PMS_P1;PMS_P2;Temp;Humidity;BMP_temperature;BMP_pressure;BME280_temperature;BME280_humidity;BME280_pressure;Samples;Min_cycle;Max_cycle;Signal;HPM_P1;HPM_P2
2023/03/17 00:01:19;;;;;;;4.57;2.00;;;;;;;10.71;53.76;100760.88;5116850;28;20044;-61
2023/03/17 00:03:49;;;;;;;5.65;2.22;;;;;;;10.71;53.80;100774.31;5119516;28;20063;-61
2023/03/17 00:06:23;;;;;;;5.28;2.40;;;;;;;10.69;53.90;100781.78;5122545;28;20103;-61
2023/03/17 00:08:51;;;;;;;4.32;2.13;;;;;;;10.68;53.94;100780.94;5121843;28;20134;-61
2023/03/17 00:11:19;;;;;;;3.22;1.92;;;;;;;10.68;54.02;100785.50;5118475;27;20071;-61
2023/03/17 00:13:47;;;;;;;4.47;2.10;;;;;;;10.67;53.86;100783.88;5114131;28;20074;-61
2023/03/17 00:16:18;;;;;;;5.32;2.00;;;;;;;10.65;54.03;100781.41;5122569;28;20051;-62
2023/03/17 00:18:49;;;;;;;6.57;2.10;;;;;;;10.64;53.88;100784.31;5107095;28;20077;-62
2023/03/17 00:21:22;;;;;;;2.95;1.92;;;;;;;10.63;54.09;100769.22;5118961;28;20051;-62
2023/03/17 00:23:52;;;;;;;3.58;2.20;;;;;;;10.62;53.75;100764.91;5114211;28;20082;-62
2023/03/17 00:26:20;;;;;;;5.93;2.03;;;;;;;10.61;53.91;100753.31;5120539;28;20044;-60
2023/03/17 00:28:49;;;;;;;4.65;2.65;;;;;;;10.60;54.20;100734.75;5119911;28;20070;-61
2023/03/17 00:31:19;;;;;;;6.60;2.47;;;;;;;10.59;54.15;100741.16;5112535;28;20055;-61
2023/03/17 00:33:51;;;;;;;3.95;2.10;;;;;;;10.57;54.14;100736.00;5115825;28;20512;-60
2023/03/17 00:36:22;;;;;;;3.42;2.05;;;;;;;10.57;54.14;100743.25;5120547;27;20186;-61
2023/03/17 00:38:51;;;;;;;4.38;2.15;;;;;;;10.56;54.33;100755.03;5123076;28;20433;-62
2023/03/17 00:41:19;;;;;;;4.35;2.50;;;;;;;10.55;54.19;100750.72;5122864;27;20048;-61
2023/03/17 00:43:47;;;;;;;4.68;2.10;;;;;;;10.52;54.31;100746.59;5122153;28;20067;-61
2023/03/17 00:46:18;;;;;;;4.70;2.08;;;;;;;10.54;53.96;100741.00;5112721;28;20050;-61
2023/03/17 00:48:47;;;;;;;4.18;2.53;;;;;;;10.53;54.05;100745.56;5112410;28;20070;-61
2023/03/17 00:51:16;;;;;;;4.07;2.13;;;;;;;10.52;54.25;100740.41;5118013;28;20058;-62
2023/03/17 00:53:44;;;;;;;5.05;2.30;;;;;;;10.52;54.10;100745.78;5112619;28;20067;-61
2023/03/17 00:56:15;;;;;;;3.60;2.20;;;;;;;10.52;54.16;100737.72;5120125;28;20455;-61
2023/03/17 00:58:43;;;;;;;3.70;2.00;;;;;;;10.52;54.08;100743.91;5121777;27;20115;-61
2023/03/17 01:01:12;;;;;;;6.45;2.92;;;;;;;10.52;54.20;100732.34;5130505;27;20047;-61
2023/03/17 01:03:40;;;;;;;4.07;2.15;;;;;;;10.50;54.14;100724.50;5123891;27;20107;-61
2023/03/17 01:06:11;;;;;;;7.07;2.33;;;;;;;10.50;54.31;100731.75;5126936;27;20050;-61
2023/03/17 01:08:41;;;;;;;5.28;2.25;;;;;;;10.49;54.34;100728.25;5123604;27;20052;-60
2023/03/17 01:11:15;;;;;;;3.88;2.30;;;;;;;10.40;54.18;100716.97;5112488;28;20497;-60
2023/03/17 01:13:42;;;;;;;4.93;2.30;;;;;;;10.48;54.12;100731.16;5110910;28;20063;-61
2023/03/17 01:16:11;;;;;;;4.88;2.10;;;;;;;10.46;54.41;100731.38;5120753;28;20350;-61
2023/03/17 01:18:40;;;;;;;3.95;2.15;;;;;;;10.47;54.24;100735.72;5113978;28;20411;-62
2023/03/17 01:21:08;;;;;;;4.07;2.20;;;;;;;10.46;54.27;100719.81;5115926;28;20059;-60
2023/03/17 01:23:36;;;;;;;6.30;1.98;;;;;;;10.44;54.16;100715.47;5116136;28;20051;-61
2023/03/17 01:26:06;;;;;;;4.68;1.92;;;;;;;10.34;54.32;100696.41;5120315;27;20048;-62
2023/03/17 01:28:34;;;;;;;6.75;2.58;;;;;;;10.42;53.99;100706.81;5118057;28;20302;-61
2023/03/17 01:31:02;;;;;;;4.75;1.88;;;;;;;10.42;54.01;100714.06;5119734;28;20134;-61
2023/03/17 01:33:30;;;;;;;7.10;2.58;;;;;;;10.40;54.35;100721.56;5111627;28;20087;-61
2023/03/17 01:35:58;;;;;;;4.80;2.10;;;;;;;10.40;54.19;100716.97;5120569;28;20051;-59
2023/03/17 01:38:26;;;;;;;5.72;2.47;;;;;;;10.39;54.36;100710.00;5121925;28;20092;-60
2023/03/17 01:40:54;;;;;;;4.53;2.30;;;;;;;10.39;54.30;100711.84;5119885;28;20111;-60
2023/03/17 01:43:26;;;;;;;3.78;1.98;;;;;;;10.37;54.27;100714.78;5112384;28;20079;-60
2023/03/17 01:46:26;;;;;;;4.15;2.38;;;;;;;10.35;54.30;100716.03;5112942;28;20135;-60
2023/03/17 01:49:04;;;;;;;5.38;2.13;;;;;;;10.34;54.18;100715.22;5114372;28;20047;-60
2023/03/17 01:51:36;;;;;;;4.93;2.10;;;;;;;10.33;54.24;100707.38;5120132;28;20316;-60
2023/03/17 01:54:08;;;;;;;4.18;2.30;;;;;;;10.32;54.17;100709.25;5106315;28;20111;-61
2023/03/17 01:56:40;;;;;;;4.00;2.00;;;;;;;10.30;54.33;100697.91;5114567;28;20159;-60
2023/03/17 01:59:16;;;;;;;6.45;3.00;;;;;;;10.31;54.31;100696.03;5109577;28;20047;-60
2023/03/17 02:01:48;;;;;;;4.47;1.92;;;;;;;10.29;54.29;100693.56;5118415;28;20066;-60
2023/03/17 02:04:17;;;;;;;4.57;2.35;;;;;;;10.29;54.19;100684.69;5108540;28;20048;-60
2023/03/17 02:06:47;;;;;;;4.22;2.30;;;;;;;10.27;54.27;100690.28;5118700;28;20039;-61
2023/03/17 02:09:25;;;;;;;5.97;2.15;;;;;;;10.25;54.22;100688.88;5118172;28;20465;-62
2023/03/17 02:11:53;;;;;;;5.75;2.17;;;;;;;10.25;54.16;100678.13;5116388;28;20044;-61
2023/03/17 02:14:23;;;;;;;5.00;2.03;;;;;;;10.24;54.37;100682.69;5112483;28;20051;-62
2023/03/17 02:16:50;;;;;;;4.00;2.25;;;;;;;10.24;54.26;100681.88;5112009;28;20074;-61
2023/03/17 02:19:18;;;;;;;6.07;2.63;;;;;;;10.22;54.07;100673.22;5106094;28;20061;-60
2023/03/17 02:21:50;;;;;;;4.40;2.35;;;;;;;10.20;54.24;100662.69;5116501;28;20523;-61
2023/03/17 02:24:27;;;;;;;3.30;1.88;;;;;;;10.20;54.21;100675.28;5119483;28;20124;-61
2023/03/17 02:27:00;;;;;;;5.10;2.13;;;;;;;10.19;54.33;100677.13;5118980;28;20051;-61
2023/03/17 02:29:27;;;;;;;5.68;2.50;;;;;;;10.17;54.36;100671.16;5120340;27;20047;-61
2023/03/17 02:31:55;;;;;;;4.70;2.25;;;;;;;10.16;54.19;100661.47;5124718;28;20060;-61
2023/03/17 02:34:23;;;;;;;5.97;2.38;;;;;;;10.16;54.30;100661.47;5123083;28;20130;-61
2023/03/17 02:36:52;;;;;;;7.78;2.40;;;;;;;10.15;54.23;100654.44;5113077;27;20107;-61
2023/03/17 02:39:20;;;;;;;8.95;3.05;;;;;;;10.15;54.58;100657.13;5112493;28;20043;-61
2023/03/17 02:41:48;;;;;;;7.38;2.60;;;;;;;10.15;54.61;100653.63;5122729;28;20051;-61
2023/03/17 02:44:15;;;;;;;5.55;2.47;;;;;;;10.11;54.35;100656.75;5125718;28;20112;-61
2023/03/17 02:46:43;;;;;;;6.57;2.35;;;;;;;10.13;54.14;100651.16;5124291;28;20051;-61
2023/03/17 02:49:12;;;;;;;5.70;2.65;;;;;;;10.13;54.42;100647.66;5122234;28;20047;-61
2023/03/17 02:51:40;;;;;;;9.38;3.60;;;;;;;10.12;54.41;100649.53;5116026;28;20048;-61
2023/03/17 02:54:09;;;;;;;7.40;2.40;;;;;;;10.11;54.15;100654.06;5119998;28;20059;-61
2023/03/17 02:56:37;;;;;;;7.63;3.22;;;;;;;10.11;54.46;100650.56;5126142;28;20040;-61
2023/03/17 02:59:06;;;;;;;5.63;2.78;;;;;;;10.10;54.39;100648.94;5115488;28;20047;-60
2023/03/17 03:01:33;;;;;;;3.90;2.05;;;;;;;10.10;54.39;100648.94;5114787;28;20086;-61
2023/03/17 03:04:02;;;;;;;7.47;2.60;;;;;;;10.09;54.15;100648.09;5118910;28;20065;-60
2023/03/17 03:06:30;;;;;;;6.53;2.50;;;;;;;10.10;54.06;100648.94;5117656;28;20051;-60
2023/03/17 03:08:58;;;;;;;5.60;2.53;;;;;;;10.09;54.04;100644.59;5122123;28;20111;-61
2023/03/17 03:11:28;;;;;;;5.05;1.92;;;;;;;10.08;54.34;100649.16;5120919;28;20080;-61
2023/03/17 03:13:56;;;;;;;4.20;2.28;;;;;;;10.08;54.51;100653.69;5114330;28;20069;-61
2023/03/17 03:16:23;;;;;;;4.88;2.15;;;;;;;10.08;54.54;100648.34;5116630;28;20568;-61
2023/03/17 03:18:51;;;;;;;6.90;2.90;;;;;;;10.06;54.18;100651.25;5125177;28;20075;-61
2023/03/17 03:21:19;;;;;;;8.02;2.42;;;;;;;10.07;54.25;100654.75;5124594;28;20138;-61
2023/03/17 03:23:47;;;;;;;6.15;2.50;;;;;;;10.07;54.57;100658.25;5118751;28;20492;-60
2023/03/17 03:26:15;;;;;;;5.45;2.10;;;;;;;10.06;54.33;100664.66;5110113;28;20185;-60
2023/03/17 03:28:44;;;;;;;7.32;2.40;;;;;;;10.05;54.44;100649.59;5121966;28;20035;-61
2023/03/17 03:31:12;;;;;;;6.95;2.75;;;;;;;10.05;54.51;100644.22;5120123;28;20083;-61
2023/03/17 03:33:40;;;;;;;6.95;2.38;;;;;;;10.04;54.05;100647.97;5118017;28;20115;-61
2023/03/17 03:36:10;;;;;;;4.63;2.25;;;;;;;10.04;54.64;100661.38;5124290;28;20051;-61
2023/03/17 03:38:37;;;;;;;5.78;2.35;;;;;;;10.03;54.45;100659.75;5121324;28;20044;-62
2023/03/17 03:41:06;;;;;;;5.80;2.42;;;;;;;10.02;54.27;100658.09;5116514;28;20044;-60
2023/03/17 03:43:34;;;;;;;8.32;2.50;;;;;;;10.02;54.35;100665.34;5123495;28;20107;-60
2023/03/17 03:46:03;;;;;;;7.50;2.75;;;;;;;10.00;54.42;100683.53;5116779;27;20504;-61
2023/03/17 03:48:31;;;;;;;5.78;2.63;;;;;;;10.00;54.50;100680.84;5115503;28;20538;-61
2023/03/17 03:51:01;;;;;;;12.13;3.70;;;;;;;9.97;54.18;100667.88;5113985;28;20659;-62
2023/03/17 03:53:30;;;;;;;9.80;2.60;;;;;;;9.97;54.15;100666.00;5122026;28;20047;-61
2023/03/17 03:55:57;;;;;;;9.65;2.63;;;;;;;9.97;54.56;100678.59;5122352;28;20115;-61
2023/03/17 03:58:25;;;;;;;7.20;2.75;;;;;;;9.96;54.24;100683.16;5114423;27;20036;-61
2023/03/17 04:00:53;;;;;;;5.97;2.20;;;;;;;9.95;54.67;100683.38;5122127;28;20056;-61
2023/03/17 04:03:22;;;;;;;8.30;2.47;;;;;;;9.93;54.47;100685.47;5121413;28;20062;-61
2023/03/17 04:05:50;;;;;;;7.28;2.47;;;;;;;9.91;54.16;100683.00;5122407;28;20123;-61
2023/03/17 04:08:18;;;;;;;8.73;2.97;;;;;;;9.90;54.21;100673.31;5123828;28;20046;-61
2023/03/17 04:10:46;;;;;;;8.30;2.58;;;;;;;9.90;54.67;100685.91;5116746;28;20131;-61
2023/03/17 04:13:14;;;;;;;6.68;2.60;;;;;;;9.88;54.57;100683.44;5114157;27;20070;-61
2023/03/17 04:15:42;;;;;;;6.57;2.67;;;;;;;9.88;54.75;100687.97;5114108;28;20066;-61
2023/03/17 04:18:10;;;;;;;9.52;3.08;;;;;;;9.88;54.41;100687.97;5112568;28;20067;-61
2023/03/17 04:20:39;;;;;;;10.68;2.90;;;;;;;9.86;54.10;100682.84;5120728;28;20044;-61
2023/03/17 04:23:07;;;;;;;8.73;2.95;;;;;;;9.87;54.54;100680.97;5119610;28;20055;-61
2023/03/17 04:25:35;;;;;;;9.23;3.25;;;;;;;9.87;54.32;100686.34;5123995;28;20074;-61
2023/03/17 04:28:03;;;;;;;9.70;3.58;;;;;;;9.85;54.39;100681.19;5121157;28;20039;-61
2023/03/17 04:30:31;;;;;;;7.05;2.50;;;;;;;9.84;54.26;100676.88;5121678;28;20519;-61
2023/03/17 04:32:59;;;;;;;9.35;2.75;;;;;;;9.84;54.75;100674.19;5111290;28;20066;-61
2023/03/17 04:35:27;;;;;;;9.85;3.25;;;;;;;9.83;54.36;100682.44;5122660;28;20115;-61
2023/03/17 04:37:56;;;;;;;10.63;3.42;;;;;;;9.83;54.77;100687.81;5123043;28;20087;-61
2023/03/17 04:40:24;;;;;;;10.60;2.70;;;;;;;9.83;54.69;100687.81;5113139;28;20539;-61
2023/03/17 04:42:52;;;;;;;11.80;3.25;;;;;;;9.82;54.12;100692.38;5115968;28;20071;-61
2023/03/17 04:45:20;;;;;;;7.72;3.10;;;;;;;9.80;54.75;100694.44;5122947;28;20049;-61
2023/03/17 04:47:47;;;;;;;8.68;2.85;;;;;;;9.79;54.63;100677.53;5113933;28;20174;-61
2023/03/17 04:50:16;;;;;;;15.23;3.13;;;;;;;9.79;54.50;100680.22;5122240;28;20074;-61
2023/03/17 04:52:44;;;;;;;11.38;2.72;;;;;;;9.80;54.24;100675.66;5119627;28;20052;-60
2023/03/17 04:55:13;;;;;;;11.18;3.10;;;;;;;9.79;54.65;100677.53;5121313;28;20071;-60
2023/03/17 04:57:41;;;;;;;8.80;2.63;;;;;;;9.79;54.69;100674.03;5116398;28;20115;-60
2023/03/17 05:00:11;;;;;;;11.02;3.25;;;;;;;9.77;54.71;100676.94;5114777;28;20062;-60
2023/03/17 05:02:39;;;;;;;13.50;2.97;;;;;;;9.78;54.70;100675.06;5115487;28;20051;-60
2023/03/17 05:05:08;;;;;;;11.05;3.45;;;;;;;9.77;54.91;100676.94;5122944;28;20044;-60
2023/03/17 05:07:36;;;;;;;13.80;2.80;;;;;;;9.78;54.59;100675.06;5116399;28;20051;-61
2023/03/17 05:10:05;;;;;;;5.97;2.50;;;;;;;9.77;54.54;100670.75;5114282;28;20054;-59
2023/03/17 05:12:34;;;;;;;9.00;2.70;;;;;;;9.76;54.70;100669.09;5121789;28;20071;-60
2023/03/17 05:15:04;;;;;;;9.32;2.60;;;;;;;9.76;54.48;100663.72;5117036;28;20094;-60
2023/03/17 05:17:31;;;;;;;12.38;2.88;;;;;;;9.76;54.75;100659.19;5120943;28;20071;-60
2023/03/17 05:19:59;;;;;;;8.60;2.58;;;;;;;9.75;54.70;100652.19;5116769;28;20076;-59
2023/03/17 05:22:27;;;;;;;13.10;2.88;;;;;;;9.75;54.78;100654.03;5117236;28;20043;-61
2023/03/17 05:24:55;;;;;;;7.68;2.60;;;;;;;9.75;54.58;100662.09;5120108;28;20071;-61
2023/03/17 05:27:23;;;;;;;6.93;2.63;;;;;;;9.75;54.32;100662.91;5114526;28;20048;-61
2023/03/17 05:29:52;;;;;;;10.15;3.13;;;;;;;9.74;54.68;100681.91;5116905;28;20040;-61
2023/03/17 05:32:20;;;;;;;8.30;2.60;;;;;;;9.74;54.65;100676.53;5112186;28;20059;-61
2023/03/17 05:34:48;;;;;;;10.75;2.63;;;;;;;9.73;54.40;100678.41;5111076;28;20067;-61
2023/03/17 05:37:16;;;;;;;16.95;2.95;;;;;;;9.70;54.81;100676.16;5119576;28;20067;-61
2023/03/17 05:39:44;;;;;;;9.45;2.33;;;;;;;9.72;54.43;100679.44;5119071;28;20065;-60
2023/03/17 05:42:12;;;;;;;8.85;2.65;;;;;;;9.71;54.88;100677.81;5122079;28;20084;-61
2023/03/17 05:44:40;;;;;;;12.00;2.90;;;;;;;9.71;54.83;100675.13;5118900;28;20146;-61
2023/03/17 05:47:09;;;;;;;7.32;2.30;;;;;;;9.69;54.77;100668.34;5119099;28;20044;-61
2023/03/17 05:49:37;;;;;;;9.15;2.55;;;;;;;9.68;54.47;100666.69;5117407;28;20125;-61
2023/03/17 05:52:05;;;;;;;7.82;2.60;;;;;;;9.67;54.52;100670.41;5111580;28;20078;-61
2023/03/17 05:54:33;;;;;;;9.88;2.65;;;;;;;9.66;54.52;100676.81;5114722;28;20110;-60
2023/03/17 05:57:00;;;;;;;10.25;3.30;;;;;;;9.66;54.62;100680.34;5119574;28;20047;-61
2023/03/17 05:59:28;;;;;;;9.07;2.72;;;;;;;9.66;54.87;100674.16;5120261;28;20560;-61
2023/03/17 06:01:56;;;;;;;8.63;2.80;;;;;;;9.66;55.00;100676.81;5115616;28;20055;-62
2023/03/17 06:04:25;;;;;;;8.00;2.33;;;;;;;9.65;55.18;100672.50;5112033;28;20130;-62
2023/03/17 06:06:53;;;;;;;12.55;2.53;;;;;;;9.64;54.46;100671.69;4766386;28;10000394;-61
2023/03/17 06:09:21;;;;;;;5.95;2.40;;;;;;;9.64;54.66;100668.19;5122914;28;20051;-62
2023/03/17 06:11:49;;;;;;;13.93;2.70;;;;;;;9.62;54.64;100672.94;5118477;28;20165;-61
2023/03/17 06:14:16;;;;;;;8.20;2.47;;;;;;;9.63;55.09;100670.03;5118315;28;20166;-62
2023/03/17 06:16:45;;;;;;;10.50;2.60;;;;;;;9.61;54.56;100669.44;5119071;28;20060;-61
2023/03/17 06:19:12;;;;;;;8.35;2.55;;;;;;;9.62;54.68;100675.63;5120073;28;20122;-60
2023/03/17 06:21:41;;;;;;;7.88;2.60;;;;;;;9.61;54.95;100680.16;5118244;28;20600;-61
2023/03/17 06:24:09;;;;;;;7.22;2.50;;;;;;;9.60;55.08;100678.53;5117155;28;20074;-61
2023/03/17 06:26:37;;;;;;;7.60;2.60;;;;;;;9.61;54.67;100690.91;5118986;28;20051;-62
2023/03/17 06:29:07;;;;;;;6.13;2.55;;;;;;;9.60;55.20;100688.44;5123456;28;20062;-61
2023/03/17 06:31:36;;;;;;;9.13;2.33;;;;;;;9.60;55.20;100685.75;5112675;28;20051;-61
2023/03/17 06:34:04;;;;;;;8.05;2.80;;;;;;;9.59;54.73;100684.94;5104739;28;20150;-60
2023/03/17 06:36:32;;;;;;;6.80;2.60;;;;;;;9.58;54.95;100682.47;5114772;27;20127;-60
2023/03/17 06:39:01;;;;;;;5.78;2.20;;;;;;;9.59;54.93;100686.78;5110865;28;20084;-59
2023/03/17 06:41:29;;;;;;;10.60;2.72;;;;;;;9.59;54.99;100684.13;5112443;28;20040;-62
2023/03/17 06:43:57;;;;;;;10.20;2.35;;;;;;;9.59;55.21;100670.69;5118579;27;20048;-63
2023/03/17 06:46:25;;;;;;;8.30;2.50;;;;;;;9.58;54.59;100669.06;5115754;28;20066;-64
2023/03/17 06:48:53;;;;;;;9.30;2.45;;;;;;;9.58;54.85;100677.09;5115255;28;20457;-64
2023/03/17 06:51:21;;;;;;;7.28;2.35;;;;;;;9.60;55.25;100678.53;5119929;28;20111;-63
2023/03/17 06:53:49;;;;;;;8.10;2.65;;;;;;;9.62;55.08;100681.81;5111592;28;20511;-64
2023/03/17 06:56:18;;;;;;;9.30;2.50;;;;;;;9.62;55.50;100675.63;5115668;28;20098;-63
2023/03/17 06:58:56;;;;;;;7.28;2.70;;;;;;;9.63;55.02;100675.41;5116802;28;20056;-61
2023/03/17 07:01:24;;;;;;;9.13;2.38;;;;;;;9.63;55.38;100679.94;5113605;28;20040;-62
2023/03/17 07:03:52;;;;;;;9.40;2.10;;;;;;;9.62;55.29;100681.81;5116935;28;20114;-63
2023/03/17 07:06:22;;;;;;;11.32;2.00;;;;;;;9.63;54.85;100680.78;5117960;28;20055;-61
2023/03/17 07:08:51;;;;;;;7.80;2.58;;;;;;;9.59;55.07;100679.56;5111751;28;20050;-62
2023/03/17 07:11:22;;;;;;;6.53;2.65;;;;;;;9.63;55.08;100688.00;5116170;28;20048;-62
2023/03/17 07:13:50;;;;;;;6.45;2.38;;;;;;;9.63;55.33;100685.31;5111206;28;20043;-60
2023/03/17 07:16:19;;;;;;;7.40;2.03;;;;;;;9.61;54.97;100682.84;5109377;28;20047;-64
2023/03/17 07:18:49;;;;;;;11.77;2.60;;;;;;;9.58;55.01;100674.41;5117116;28;20058;-60
2023/03/17 07:21:17;;;;;;;7.50;2.80;;;;;;;9.60;55.48;100680.38;5117280;27;20050;-60
2023/03/17 07:23:45;;;;;;;7.38;2.10;;;;;;;9.60;54.86;100677.72;5115627;28;20108;-60
2023/03/17 07:26:13;;;;;;;7.68;2.20;;;;;;;9.61;55.47;100684.72;5108330;27;20067;-60
2023/03/17 07:28:42;;;;;;;8.07;2.20;;;;;;;9.62;55.52;100675.63;5110829;28;20119;-60
2023/03/17 07:31:12;;;;;;;7.13;2.88;;;;;;;9.62;55.57;100671.06;5118795;28;20043;-60
2023/03/17 07:33:41;;;;;;;10.57;2.40;;;;;;;9.59;55.12;100668.00;5113748;28;20107;-61
2023/03/17 07:36:09;;;;;;;8.27;2.40;;;;;;;9.62;55.47;100663.03;5111922;28;20054;-61
2023/03/17 07:38:37;;;;;;;13.52;3.15;;;;;;;9.64;55.54;100670.84;5111630;28;20103;-61
2023/03/17 07:41:08;;;;;;;9.68;2.22;;;;;;;9.58;55.15;100661.81;5114687;28;20048;-61
2023/03/17 07:43:37;;;;;;;6.80;2.63;;;;;;;9.67;55.53;100678.47;5104738;28;20148;-62
2023/03/17 07:46:07;;;;;;;10.05;2.90;;;;;;;9.67;55.50;100665.06;5113246;28;20470;-62
2023/03/17 07:48:39;;;;;;;9.98;2.28;;;;;;;9.67;55.29;100668.56;5110058;28;20047;-61
2023/03/17 07:51:11;;;;;;;10.43;2.28;;;;;;;9.67;55.49;100671.25;5108056;28;20052;-61
2023/03/17 07:53:39;;;;;;;6.35;2.08;;;;;;;9.67;55.54;100673.94;5117447;28;20075;-61
2023/03/17 07:56:07;;;;;;;9.05;3.15;;;;;;;9.68;55.11;100664.84;5117000;28;20469;-61
2023/03/17 07:58:35;;;;;;;4.93;2.28;;;;;;;9.65;55.09;100661.78;5111826;28;20048;-61
2023/03/17 08:01:03;;;;;;;5.75;1.83;;;;;;;9.68;55.77;100672.06;5115408;27;20059;-61
2023/03/17 08:03:33;;;;;;;4.75;2.15;;;;;;;9.69;55.34;100676.38;5110962;28;20082;-61
2023/03/17 08:06:02;;;;;;;5.63;2.13;;;;;;;9.68;55.65;100667.53;5115354;28;20076;-61
2023/03/17 08:08:30;;;;;;;7.63;1.85;;;;;;;9.69;55.10;100669.16;5111069;27;20107;-62
2023/03/17 08:11:02;;;;;;;4.97;1.90;;;;;;;9.69;55.69;100673.72;5113426;28;20055;-61
2023/03/17 08:13:30;;;;;;;8.32;2.15;;;;;;;9.70;55.50;100675.34;5113194;28;20575;-60
2023/03/17 08:15:58;;;;;;;5.82;2.53;;;;;;;9.70;55.67;100681.53;5105776;28;20489;-61
2023/03/17 08:18:26;;;;;;;5.75;2.45;;;;;;;9.71;55.25;100687.72;5106369;28;20086;-61
2023/03/17 08:20:56;;;;;;;6.32;1.95;;;;;;;9.71;55.92;100688.53;5112647;27;20047;-61
2023/03/17 08:23:24;;;;;;;4.38;1.92;;;;;;;9.73;55.86;100689.16;5108169;28;20047;-62
2023/03/17 08:25:56;;;;;;;4.68;1.85;;;;;;;9.73;55.81;100686.47;5105150;28;20040;-61
2023/03/17 08:28:24;;;;;;;5.72;2.20;;;;;;;9.73;56.03;100689.16;5103861;28;20066;-61
2023/03/17 08:30:53;;;;;;;4.30;1.90;;;;;;;9.76;55.98;100695.94;5109725;28;20225;-61
2023/03/17 08:33:21;;;;;;;4.05;1.80;;;;;;;9.76;55.66;100680.66;5115090;28;20075;-60
2023/03/17 08:35:51;;;;;;;11.57;3.53;;;;;;;9.77;56.13;100678.78;5107304;28;20633;-61
2023/03/17 08:38:20;;;;;;;7.88;2.30;;;;;;;9.77;55.81;100668.88;5108512;28;20044;-60
2023/03/17 08:40:49;;;;;;;8.98;2.45;;;;;;;9.77;55.61;100655.47;5107741;28;20071;-60
2023/03/17 08:43:17;;;;;;;5.95;1.95;;;;;;;9.77;56.22;100660.81;5125171;27;20074;-61
2023/03/17 08:45:45;;;;;;;4.22;1.77;;;;;;;9.78;56.32;100659.78;5109354;28;20040;-61
2023/03/17 08:48:13;;;;;;;4.95;1.92;;;;;;;9.79;56.26;100661.44;5106352;28;20084;-61
2023/03/17 08:50:41;;;;;;;4.68;1.95;;;;;;;9.79;55.80;100658.75;5117238;28;20113;-62
2023/03/17 08:53:08;;;;;;;5.38;2.10;;;;;;;9.82;56.03;100664.72;5111925;28;20077;-61
2023/03/17 08:55:38;;;;;;;6.68;2.13;;;;;;;9.83;56.08;100659.13;5119895;28;20051;-60
2023/03/17 08:58:06;;;;;;;7.07;2.30;;;;;;;9.86;55.74;100663.22;5111084;28;20529;-61
2023/03/17 09:00:34;;;;;;;6.47;2.00;;;;;;;9.88;56.11;100666.50;5106775;28;20043;-61
2023/03/17 09:03:02;;;;;;;6.68;2.03;;;;;;;9.89;56.11;100665.47;5108120;28;20051;-61
2023/03/17 09:05:30;;;;;;;11.02;1.95;;;;;;;9.91;56.16;100668.75;5109656;28;20088;-60
2023/03/17 09:07:58;;;;;;;7.32;2.10;;;;;;;9.91;56.50;100664.19;5113057;28;20743;-61
2023/03/17 09:10:27;;;;;;;4.22;2.13;;;;;;;9.93;56.22;100666.66;5113794;28;20047;-62
2023/03/17 09:13:01;;;;;;;5.50;1.75;;;;;;;10.01;56.50;100664.50;5112716;28;20061;-62
2023/03/17 09:15:29;;;;;;;4.63;2.10;;;;;;;10.08;56.03;100659.91;5106442;28;20351;-63
2023/03/17 09:17:58;;;;;;;4.38;1.75;;;;;;;10.15;56.23;100662.50;5106539;28;20154;-61
2023/03/17 09:20:25;;;;;;;5.18;1.80;;;;;;;10.19;56.13;100663.69;5115348;28;20074;-62
2023/03/17 09:22:53;;;;;;;3.88;1.85;;;;;;;10.22;56.30;100667.84;5111897;28;20067;-62
2023/03/17 09:25:21;;;;;;;4.28;2.17;;;;;;;10.22;56.03;100673.22;5111265;27;20748;-62
2023/03/17 09:27:49;;;;;;;5.15;2.20;;;;;;;10.23;56.62;100675.66;5114543;27;20176;-61
2023/03/17 09:30:18;;;;;;;6.32;2.25;;;;;;;10.24;56.42;100669.25;5118328;27;20065;-62
2023/03/17 09:32:47;;;;;;;5.45;2.13;;;;;;;10.24;56.55;100666.56;5114008;27;20114;-62
2023/03/17 09:35:15;;;;;;;5.18;2.08;;;;;;;10.24;56.43;100661.19;5111482;28;20138;-63
2023/03/17 09:37:43;;;;;;;4.43;1.60;;;;;;;10.24;56.83;100650.44;5115650;28;20051;-62
2023/03/17 09:40:16;;;;;;;4.65;2.42;;;;;;;10.25;56.73;100653.97;5120572;27;20052;-63
2023/03/17 09:42:56;;;;;;;4.53;1.95;;;;;;;10.36;56.27;100661.28;5116797;28;20063;-62
2023/03/17 09:45:33;;;;;;;7.07;2.30;;;;;;;10.54;55.98;100668.47;5110878;28;20051;-62
2023/03/17 09:48:13;;;;;;;4.10;2.00;;;;;;;10.73;55.60;100652.06;5107612;28;20056;-62
2023/03/17 09:50:48;;;;;;;3.42;1.95;;;;;;;10.95;54.94;100651.56;5110804;28;20075;-63
2023/03/17 09:53:20;;;;;;;3.88;2.10;;;;;;;11.16;54.81;100661.00;5115472;28;20059;-62
2023/03/17 09:55:52;;;;;;;4.50;2.05;;;;;;;11.34;54.48;100658.22;5112164;28;20135;-63
2023/03/17 09:58:25;;;;;;;4.78;1.90;;;;;;;11.53;54.25;100661.63;5113228;28;20070;-63
2023/03/17 10:00:55;;;;;;;3.80;1.88;;;;;;;11.72;53.73;100650.53;5108579;28;20066;-62
2023/03/17 10:03:23;;;;;;;4.30;2.10;;;;;;;11.92;53.35;100644.81;5114119;28;20097;-62
2023/03/17 10:05:51;;;;;;;4.47;1.77;;;;;;;12.13;53.01;100650.66;5105030;28;20405;-62
2023/03/17 10:08:27;;;;;;;7.85;2.35;;;;;;;12.25;52.61;100657.63;5109133;28;20059;-62
2023/03/17 10:11:04;;;;;;;5.97;1.85;;;;;;;12.39;52.34;100644.72;5111328;28;20048;-61
2023/03/17 10:13:49;;;;;;;4.05;2.00;;;;;;;12.51;52.17;100652.75;5108250;28;20040;-61
2023/03/17 10:16:21;;;;;;;5.22;1.77;;;;;;;12.51;52.41;100668.94;5107274;28;20071;-63
2023/03/17 10:18:54;;;;;;;5.32;2.25;;;;;;;12.39;52.60;100667.09;5108268;28;20044;-62
2023/03/17 10:21:25;;;;;;;5.15;1.98;;;;;;;12.21;53.19;100669.13;5114274;28;20180;-62
2023/03/17 10:23:55;;;;;;;3.10;1.85;;;;;;;12.03;53.89;100662.84;5108895;28;20084;-63
2023/03/17 10:26:29;;;;;;;3.10;1.73;;;;;;;11.86;54.43;100661.91;5104021;28;20051;-63
2023/03/17 10:28:58;;;;;;;6.53;1.70;;;;;;;11.76;54.95;100663.53;5114535;28;20071;-63
2023/03/17 10:31:33;;;;;;;5.13;1.92;;;;;;;11.66;55.17;100653.34;5115919;28;20044;-63
2023/03/17 10:34:13;;;;;;;4.60;2.15;;;;;;;11.55;56.13;100664.91;5108010;28;20353;-63
2023/03/17 10:36:44;;;;;;;6.00;1.88;;;;;;;11.55;56.11;100667.59;5114688;28;20046;-62
2023/03/17 10:39:15;;;;;;;11.77;1.70;;;;;;;11.57;55.89;100665.50;5115890;28;20044;-63
2023/03/17 10:41:52;;;;;;;4.68;2.10;;;;;;;11.55;55.83;100665.75;5116473;28;20054;-63
2023/03/17 10:44:35;;;;;;;4.47;1.92;;;;;;;11.46;56.31;100677.91;5115943;28;20043;-63
2023/03/17 10:47:04;;;;;;;6.55;2.47;;;;;;;11.49;56.55;100663.16;5115216;28;20043;-63
2023/03/17 10:49:35;;;;;;;5.28;2.40;;;;;;;11.50;56.55;100680.94;5116237;28;20043;-63
2023/03/17 10:52:07;;;;;;;5.43;2.25;;;;;;;11.50;56.76;100672.88;5118762;28;20059;-63
2023/03/17 10:54:37;;;;;;;5.82;2.03;;;;;;;11.50;57.00;100662.09;5118710;28;20108;-62
2023/03/17 10:57:09;;;;;;;4.40;1.73;;;;;;;11.50;57.35;100659.41;5120845;28;20063;-64
2023/03/17 10:59:42;;;;;;;4.55;2.55;;;;;;;11.53;57.21;100656.25;5118146;28;20116;-63
2023/03/17 11:02:23;;;;;;;7.18;2.00;;;;;;;11.52;56.96;100654.63;5114548;28;20040;-63
2023/03/17 11:05:00;;;;;;;5.90;2.30;;;;;;;11.55;57.23;100648.78;5122624;28;20403;-63
2023/03/17 11:07:38;;;;;;;4.50;1.80;;;;;;;11.54;57.40;100642.56;5117276;28;20114;-64
2023/03/17 11:10:17;;;;;;;2.85;1.55;;;;;;;11.51;57.53;100634.13;5120999;28;20092;-64
2023/03/17 11:12:49;;;;;;;4.35;1.90;;;;;;;11.60;57.76;100643.50;5113576;28;20036;-63
2023/03/17 11:15:18;;;;;;;8.80;2.17;;;;;;;11.54;57.86;100645.25;5117863;28;20055;-63
2023/03/17 11:17:57;;;;;;;8.45;2.22;;;;;;;11.54;57.90;100645.25;5118754;28;20139;-64
2023/03/17 11:20:39;;;;;;;2.65;1.73;;;;;;;11.53;57.79;100635.53;5122683;27;20047;-64
2023/03/17 11:23:16;;;;;;;4.47;1.92;;;;;;;11.54;57.98;100637.19;5119332;28;20044;-63
2023/03/17 11:25:48;;;;;;;6.05;2.63;;;;;;;11.58;58.12;100641.06;5108501;28;20143;-64
2023/03/17 11:28:21;;;;;;;5.28;2.00;;;;;;;11.58;58.03;100638.34;5118092;28;20050;-62
2023/03/17 11:31:01;;;;;;;3.85;1.83;;;;;;;11.60;58.10;100643.50;5106760;28;20076;-64
2023/03/17 11:33:39;;;;;;;3.70;1.90;;;;;;;11.59;58.24;100645.38;5118283;27;20134;-64
2023/03/17 11:36:19;;;;;;;5.22;1.92;;;;;;;11.62;58.22;100642.22;5117076;28;20040;-64
2023/03/17 11:38:58;;;;;;;3.40;1.85;;;;;;;11.66;58.48;100651.47;5117561;28;20071;-64